SKRH/RCH METAR and TAF weather

Enter ICAO airport designator
Station Type Date Time Source
SKRH METAR 2020/02/25 11:00 UTC NOAA

SKRH 251100Z 08006KT 9999 BKN020 26/22 A2988


Station Type Date Time Source
SKRH Decoded METAR 2020/02/25 11:00 UTC NOAA

Riohacha / Almirante Padilla, Colombia (SKRH) 11-32N 072-56W 4M
Feb 25, 2020 - 06:00 AM EST / 2020.02.25 1100 UTC
Wind: from the E (080 degrees) at 7 MPH (6 KT):0
Visibility: greater than 7 mile(s):0
Sky conditions: mostly cloudy
Temperature: 78 F (26 C)
Dew Point: 71 F (22 C)
Relative Humidity: 78%
Pressure (altimeter): 29.88 in. Hg (1011 hPa)
ob: SKRH 251100Z 08006KT 9999 BKN020 26/22 A2988
cycle: 11

Station Type Date Time Source
SKRH TAF 2015/07/31 18:51 UTC NOAA

TAF SKRH 311700Z 3118/0118 07010KT 9999 SCT017
TEMPO 3120/0103 09015KT CAVOK
TEMPO 0109/0114 9000 BKN015 TX36/3118Z TN28/0110Z

Example: see airport list